sensor_id;sensor_type;location;lat;lon;timestamp;pressure;altitude;pressure_sealevel;temperature;humidity
53908;BME280;40469;47.998;7.794;2023-04-06T00:00:53;99230.59;;;2.94;100.00
53908;BME280;40469;47.998;7.794;2023-04-06T00:03:18;99225.38;;;2.91;100.00
53908;BME280;40469;47.998;7.794;2023-04-06T00:05:44;99221.09;;;2.93;100.00
53908;BME280;40469;47.998;7.794;2023-04-06T00:08:10;99226.34;;;2.96;100.00
53908;BME280;40469;47.998;7.794;2023-04-06T00:10:36;99220.25;;;2.92;100.00
53908;BME280;40469;47.998;7.794;2023-04-06T00:13:01;99223.81;;;2.97;100.00
53908;BME280;40469;47.998;7.794;2023-04-06T00:15:27;99213.47;;;2.96;100.00
53908;BME280;40469;47.998;7.794;2023-04-06T00:17:52;99220.09;;;2.86;100.00
53908;BME280;40469;47.998;7.794;2023-04-06T00:20:18;99219.22;;;2.85;100.00
53908;BME280;40469;47.998;7.794;2023-04-06T00:22:44;99216.59;;;2.84;100.00
53908;BME280;40469;47.998;7.794;2023-04-06T00:25:09;99209.84;;;2.89;100.00
53908;BME280;40469;47.998;7.794;2023-04-06T00:27:36;99209.72;;;2.83;100.00
53908;BME280;40469;47.998;7.794;2023-04-06T00:30:05;99211.56;;;2.89;100.00
53908;BME280;40469;47.998;7.794;2023-04-06T00:32:31;99206.28;;;2.84;100.00
53908;BME280;40469;47.998;7.794;2023-04-06T00:34:58;99207.13;;;2.83;100.00
53908;BME280;40469;47.998;7.794;2023-04-06T00:37:23;99196.81;;;2.83;100.00
53908;BME280;40469;47.998;7.794;2023-04-06T00:39:49;99205.25;;;2.76;100.00
53908;BME280;40469;47.998;7.794;2023-04-06T00:42:17;99208.75;;;2.79;100.00
53908;BME280;40469;47.998;7.794;2023-04-06T00:44:43;99205.38;;;2.82;100.00
53908;BME280;40469;47.998;7.794;2023-04-06T00:47:09;99207.81;;;2.76;100.00
53908;BME280;40469;47.998;7.794;2023-04-06T00:49:35;99199.09;;;2.71;100.00
53908;BME280;40469;47.998;7.794;2023-04-06T00:52:00;99207.69;;;2.71;100.00
53908;BME280;40469;47.998;7.794;2023-04-06T00:54:27;99201.50;;;2.64;100.00
53908;BME280;40469;47.998;7.794;2023-04-06T00:56:52;99206.59;;;2.61;100.00
53908;BME280;40469;47.998;7.794;2023-04-06T00:59:18;99207.47;;;2.62;100.00
53908;BME280;40469;47.998;7.794;2023-04-06T01:01:43;99198.69;;;2.55;100.00
53908;BME280;40469;47.998;7.794;2023-04-06T01:04:09;99202.16;;;2.57;100.00
53908;BME280;40469;47.998;7.794;2023-04-06T01:06:35;99206.41;;;2.55;100.00
53908;BME280;40469;47.998;7.794;2023-04-06T01:09:00;99201.34;;;2.58;100.00
53908;BME280;40469;47.998;7.794;2023-04-06T01:11:26;99196.78;;;2.48;100.00
53908;BME280;40469;47.998;7.794;2023-04-06T01:13:52;99197.41;;;2.39;100.00
53908;BME280;40469;47.998;7.794;2023-04-06T01:16:17;99195.03;;;2.47;100.00
53908;BME280;40469;47.998;7.794;2023-04-06T01:18:43;99194.25;;;2.50;100.00
53908;BME280;40469;47.998;7.794;2023-04-06T01:21:09;99188.00;;;2.41;100.00
53908;BME280;40469;47.998;7.794;2023-04-06T01:23:40;99194.56;;;2.28;100.00
53908;BME280;40469;47.998;7.794;2023-04-06T01:26:05;99199.56;;;2.24;100.00
53908;BME280;40469;47.998;7.794;2023-04-06T01:28:31;99196.97;;;2.22;100.00
53908;BME280;40469;47.998;7.794;2023-04-06T01:30:56;99200.19;;;2.15;100.00
53908;BME280;40469;47.998;7.794;2023-04-06T01:33:22;99195.13;;;2.18;100.00
53908;BME280;40469;47.998;7.794;2023-04-06T01:35:47;99195.75;;;2.09;100.00
53908;BME280;40469;47.998;7.794;2023-04-06T01:38:12;99190.47;;;2.05;100.00
53908;BME280;40469;47.998;7.794;2023-04-06T01:40:38;99190.19;;;1.96;100.00
53908;BME280;40469;47.998;7.794;2023-04-06T01:43:03;99184.09;;;1.92;100.00
53908;BME280;40469;47.998;7.794;2023-04-06T01:45:29;99194.22;;;1.86;100.00
53908;BME280;40469;47.998;7.794;2023-04-06T01:47:54;99190.66;;;1.81;100.00
53908;BME280;40469;47.998;7.794;2023-04-06T01:50:20;99182.13;;;1.83;100.00
53908;BME280;40469;47.998;7.794;2023-04-06T01:52:45;99188.06;;;1.81;100.00
53908;BME280;40469;47.998;7.794;2023-04-06T01:55:10;99190.75;;;1.84;100.00
53908;BME280;40469;47.998;7.794;2023-04-06T01:57:36;99186.66;;;1.92;100.00
53908;BME280;40469;47.998;7.794;2023-04-06T02:00:01;99190.19;;;1.96;100.00
53908;BME280;40469;47.998;7.794;2023-04-06T02:02:27;99193.53;;;1.92;100.00
53908;BME280;40469;47.998;7.794;2023-04-06T02:04:52;99184.94;;;1.91;100.00
53908;BME280;40469;47.998;7.794;2023-04-06T02:07:18;99195.19;;;1.89;100.00
53908;BME280;40469;47.998;7.794;2023-04-06T02:09:43;99194.19;;;1.84;100.00
53908;BME280;40469;47.998;7.794;2023-04-06T02:12:08;99198.53;;;1.87;100.00
53908;BME280;40469;47.998;7.794;2023-04-06T02:14:34;99182.19;;;1.85;100.00
53908;BME280;40469;47.998;7.794;2023-04-06T02:16:59;99189.84;;;1.82;100.00
53908;BME280;40469;47.998;7.794;2023-04-06T02:19:25;99190.66;;;1.81;100.00
53908;BME280;40469;47.998;7.794;2023-04-06T02:21:51;99180.09;;;1.72;100.00
53908;BME280;40469;47.998;7.794;2023-04-06T02:24:16;99180.81;;;1.67;100.00
53908;BME280;40469;47.998;7.794;2023-04-06T02:26:41;99182.75;;;1.75;100.00
53908;BME280;40469;47.998;7.794;2023-04-06T02:29:07;99179.78;;;1.61;100.00
53908;BME280;40469;47.998;7.794;2023-04-06T02:31:32;99184.19;;;1.65;100.00
53908;BME280;40469;47.998;7.794;2023-04-06T02:33:58;99184.94;;;1.62;100.00
53908;BME280;40469;47.998;7.794;2023-04-06T02:36:23;99181.75;;;1.69;100.00
53908;BME280;40469;47.998;7.794;2023-04-06T02:38:48;99185.81;;;1.61;100.00
53908;BME280;40469;47.998;7.794;2023-04-06T02:41:14;99183.22;;;1.61;100.00
53908;BME280;40469;47.998;7.794;2023-04-06T02:43:39;99183.97;;;1.57;100.00
53908;BME280;40469;47.998;7.794;2023-04-06T02:46:05;99181.31;;;1.54;100.00
53908;BME280;40469;47.998;7.794;2023-04-06T02:48:30;99182.88;;;1.49;100.00
53908;BME280;40469;47.998;7.794;2023-04-06T02:50:55;99177.66;;;1.47;100.00
53908;BME280;40469;47.998;7.794;2023-04-06T02:53:21;99174.41;;;1.53;100.00
53908;BME280;40469;47.998;7.794;2023-04-06T02:55:46;99170.00;;;1.49;100.00
53908;BME280;40469;47.998;7.794;2023-04-06T02:58:12;99170.81;;;1.48;100.00
53908;BME280;40469;47.998;7.794;2023-04-06T03:00:37;99172.47;;;1.46;100.00
53908;BME280;40469;47.998;7.794;2023-04-06T03:03:02;99178.47;;;1.46;100.00
53908;BME280;40469;47.998;7.794;2023-04-06T03:05:28;99169.91;;;1.46;100.00
53908;BME280;40469;47.998;7.794;2023-04-06T03:07:53;99167.28;;;1.44;100.00
53908;BME280;40469;47.998;7.794;2023-04-06T03:10:18;99170.75;;;1.45;100.00
53908;BME280;40469;47.998;7.794;2023-04-06T03:12:44;99174.13;;;1.44;100.00
53908;BME280;40469;47.998;7.794;2023-04-06T03:15:10;99169.91;;;1.46;100.00
53908;BME280;40469;47.998;7.794;2023-04-06T03:17:36;99167.44;;;1.49;100.00
53908;BME280;40469;47.998;7.794;2023-04-06T03:20:02;99172.38;;;1.43;100.00
53908;BME280;40469;47.998;7.794;2023-04-06T03:22:28;99174.94;;;1.43;100.00
53908;BME280;40469;47.998;7.794;2023-04-06T03:24:54;99173.97;;;1.39;100.00
53908;BME280;40469;47.998;7.794;2023-04-06T03:27:19;99181.81;;;1.42;100.00
53908;BME280;40469;47.998;7.794;2023-04-06T03:29:45;99170.59;;;1.40;100.00
53908;BME280;40469;47.998;7.794;2023-04-06T03:32:11;99179.28;;;1.44;100.00
53908;BME280;40469;47.998;7.794;2023-04-06T03:34:36;99170.81;;;1.48;100.00
53908;BME280;40469;47.998;7.794;2023-04-06T03:37:01;99171.56;;;1.44;100.00
53908;BME280;40469;47.998;7.794;2023-04-06T03:39:27;99178.47;;;1.46;100.00
53908;BME280;40469;47.998;7.794;2023-04-06T03:41:52;99177.81;;;1.52;100.00
53908;BME280;40469;47.998;7.794;2023-04-06T03:44:18;99174.28;;;1.48;100.00
53908;BME280;40469;47.998;7.794;2023-04-06T03:46:43;99175.97;;;1.48;100.00
53908;BME280;40469;47.998;7.794;2023-04-06T03:49:08;99174.28;;;1.50;100.00
53908;BME280;40469;47.998;7.794;2023-04-06T03:51:34;99178.53;;;1.48;100.00
53908;BME280;40469;47.998;7.794;2023-04-06T03:54:00;99182.13;;;1.53;100.00
53908;BME280;40469;47.998;7.794;2023-04-06T03:56:25;99178.69;;;1.52;100.00
53908;BME280;40469;47.998;7.794;2023-04-06T03:58:51;99185.44;;;1.49;100.00
53908;BME280;40469;47.998;7.794;2023-04-06T04:01:17;99188.88;;;1.49;100.00
53908;BME280;40469;47.998;7.794;2023-04-06T04:03:43;99188.78;;;1.46;100.00
53908;BME280;40469;47.998;7.794;2023-04-06T04:06:08;99191.34;;;1.46;100.00
53908;BME280;40469;47.998;7.794;2023-04-06T04:08:34;99196.41;;;1.43;100.00
53908;BME280;40469;47.998;7.794;2023-04-06T04:11:00;99195.50;;;1.41;100.00
53908;BME280;40469;47.998;7.794;2023-04-06T04:13:26;99197.97;;;1.38;100.00
53908;BME280;40469;47.998;7.794;2023-04-06T04:15:51;99193.75;;;1.40;100.00
53908;BME280;40469;47.998;7.794;2023-04-06T04:18:16;99212.63;;;1.41;100.00
53908;BME280;40469;47.998;7.794;2023-04-06T04:20:42;99205.66;;;1.37;100.00
53908;BME280;40469;47.998;7.794;2023-04-06T04:23:07;99203.84;;;1.34;100.00
53908;BME280;40469;47.998;7.794;2023-04-06T04:25:32;99203.88;;;1.36;100.00
53908;BME280;40469;47.998;7.794;2023-04-06T04:27:58;99208.97;;;1.32;100.00
53908;BME280;40469;47.998;7.794;2023-04-06T04:30:23;99203.59;;;1.26;100.00
53908;BME280;40469;47.998;7.794;2023-04-06T04:32:49;99208.84;;;1.29;100.00
53908;BME280;40469;47.998;7.794;2023-04-06T04:35:14;99210.56;;;1.29;100.00
53908;BME280;40469;47.998;7.794;2023-04-06T04:37:41;99216.56;;;1.29;100.00
53908;BME280;40469;47.998;7.794;2023-04-06T04:40:07;99209.66;;;1.28;100.00
53908;BME280;40469;47.998;7.794;2023-04-06T04:42:32;99213.22;;;1.32;100.00
53908;BME280;40469;47.998;7.794;2023-04-06T04:44:57;99220.81;;;1.27;100.00
53908;BME280;40469;47.998;7.794;2023-04-06T04:47:23;99213.09;;;1.27;100.00
53908;BME280;40469;47.998;7.794;2023-04-06T04:49:48;99225.94;;;1.27;100.00
53908;BME280;40469;47.998;7.794;2023-04-06T04:52:14;99218.22;;;1.27;100.00
53908;BME280;40469;47.998;7.794;2023-04-06T04:54:39;99218.31;;;1.30;100.00
53908;BME280;40469;47.998;7.794;2023-04-06T04:57:06;99221.56;;;1.25;100.00
53908;BME280;40469;47.998;7.794;2023-04-06T04:59:31;99223.97;;;1.19;100.00
53908;BME280;40469;47.998;7.794;2023-04-06T05:01:57;99229.09;;;1.19;100.00
53908;BME280;40469;47.998;7.794;2023-04-06T05:04:22;99217.91;;;1.17;100.00
53908;BME280;40469;47.998;7.794;2023-04-06T05:06:48;99223.97;;;1.19;100.00
53908;BME280;40469;47.998;7.794;2023-04-06T05:09:14;99226.56;;;1.20;100.00
53908;BME280;40469;47.998;7.794;2023-04-06T05:11:39;99225.56;;;1.15;100.00
53908;BME280;40469;47.998;7.794;2023-04-06T05:14:04;99227.16;;;1.11;100.00
53908;BME280;40469;47.998;7.794;2023-04-06T05:16:32;99230.53;;;1.10;100.00
53908;BME280;40469;47.998;7.794;2023-04-06T05:18:57;99233.31;;;1.17;100.00
53908;BME280;40469;47.998;7.794;2023-04-06T05:21:23;99225.63;;;1.18;100.00
53908;BME280;40469;47.998;7.794;2023-04-06T05:23:48;99225.63;;;1.18;100.00
53908;BME280;40469;47.998;7.794;2023-04-06T05:26:13;99227.53;;;1.24;100.00
53908;BME280;40469;47.998;7.794;2023-04-06T05:28:39;99231.09;;;1.27;100.00
53908;BME280;40469;47.998;7.794;2023-04-06T05:31:04;99234.53;;;1.28;100.00
53908;BME280;40469;47.998;7.794;2023-04-06T05:33:30;99229.38;;;1.28;100.00
53908;BME280;40469;47.998;7.794;2023-04-06T05:35:55;99233.78;;;1.32;100.00
53908;BME280;40469;47.998;7.794;2023-04-06T05:38:20;99242.47;;;1.36;100.00
53908;BME280;40469;47.998;7.794;2023-04-06T05:40:46;99239.03;;;1.35;100.00
53908;BME280;40469;47.998;7.794;2023-04-06T05:43:12;99245.19;;;1.40;100.00
53908;BME280;40469;47.998;7.794;2023-04-06T05:45:37;99252.22;;;1.46;100.00
53908;BME280;40469;47.998;7.794;2023-04-06T05:48:03;99253.94;;;1.45;100.00
53908;BME280;40469;47.998;7.794;2023-04-06T05:50:28;99243.88;;;1.53;100.00
53908;BME280;40469;47.998;7.794;2023-04-06T05:52:54;99248.31;;;1.57;100.00
53908;BME280;40469;47.998;7.794;2023-04-06T05:55:20;99244.84;;;1.57;100.00
53908;BME280;40469;47.998;7.794;2023-04-06T05:57:45;99241.69;;;1.65;100.00
53908;BME280;40469;47.998;7.794;2023-04-06T06:00:11;99244.34;;;1.68;100.00
53908;BME280;40469;47.998;7.794;2023-04-06T06:02:36;99239.41;;;1.76;100.00
53908;BME280;40469;47.998;7.794;2023-04-06T06:05:02;99241.34;;;1.83;100.00
53908;BME280;40469;47.998;7.794;2023-04-06T06:07:27;99243.97;;;1.85;100.00
53908;BME280;40469;47.998;7.794;2023-04-06T06:09:56;99243.47;;;1.97;100.00
53908;BME280;40469;47.998;7.794;2023-04-06T06:12:22;99246.00;;;1.95;100.00
53908;BME280;40469;47.998;7.794;2023-04-06T06:14:47;99233.88;;;1.91;100.00
53908;BME280;40469;47.998;7.794;2023-04-06T06:17:12;99251.28;;;2.00;100.00
53908;BME280;40469;47.998;7.794;2023-04-06T06:19:40;99243.75;;;2.07;100.00
53908;BME280;40469;47.998;7.794;2023-04-06T06:22:05;99248.16;;;2.12;100.00
53908;BME280;40469;47.998;7.794;2023-04-06T06:24:31;99238.16;;;2.21;100.00
53908;BME280;40469;47.998;7.794;2023-04-06T06:26:56;99247.03;;;2.32;100.00
53908;BME280;40469;47.998;7.794;2023-04-06T06:29:22;99248.19;;;2.42;100.00
53908;BME280;40469;47.998;7.794;2023-04-06T06:31:48;99242.59;;;2.58;100.00
53908;BME280;40469;47.998;7.794;2023-04-06T06:34:14;99244.53;;;2.67;100.00
53908;BME280;40469;47.998;7.794;2023-04-06T06:36:39;99240.44;;;2.75;100.00
53908;BME280;40469;47.998;7.794;2023-04-06T06:39:05;99238.97;;;2.85;100.00
53908;BME280;40469;47.998;7.794;2023-04-06T06:41:30;99233.28;;;2.97;100.00
53908;BME280;40469;47.998;7.794;2023-04-06T06:43:56;99238.59;;;3.04;100.00
53908;BME280;40469;47.998;7.794;2023-04-06T06:46:21;99239.63;;;3.11;100.00
53908;BME280;40469;47.998;7.794;2023-04-06T06:48:46;99233.97;;;3.26;100.00
53908;BME280;40469;47.998;7.794;2023-04-06T06:51:12;99242.69;;;3.31;100.00
53908;BME280;40469;47.998;7.794;2023-04-06T06:53:37;99241.88;;;3.32;100.00
53908;BME280;40469;47.998;7.794;2023-04-06T06:56:03;99237.59;;;3.34;100.00
53908;BME280;40469;47.998;7.794;2023-04-06T06:58:28;99236.09;;;3.42;100.00
53908;BME280;40469;47.998;7.794;2023-04-06T07:00:57;99240.50;;;3.48;100.00
53908;BME280;40469;47.998;7.794;2023-04-06T07:03:23;99236.41;;;3.58;100.00
53908;BME280;40469;47.998;7.794;2023-04-06T07:05:49;99238.56;;;3.76;100.00
53908;BME280;40469;47.998;7.794;2023-04-06T07:08:21;99235.19;;;3.80;100.00
53908;BME280;40469;47.998;7.794;2023-04-06T07:10:48;99243.00;;;3.85;100.00
53908;BME280;40469;47.998;7.794;2023-04-06T07:13:14;99246.16;;;4.11;100.00
53908;BME280;40469;47.998;7.794;2023-04-06T07:15:45;99242.84;;;4.18;100.00
53908;BME280;40469;47.998;7.794;2023-04-06T07:18:11;99237.06;;;4.30;100.00
53908;BME280;40469;47.998;7.794;2023-04-06T07:20:36;99243.28;;;4.38;100.00
53908;BME280;40469;47.998;7.794;2023-04-06T07:23:02;99233.03;;;4.44;100.00
53908;BME280;40469;47.998;7.794;2023-04-06T07:25:27;99238.47;;;4.58;100.00
53908;BME280;40469;47.998;7.794;2023-04-06T07:27:53;99248.75;;;4.55;100.00
53908;BME280;40469;47.998;7.794;2023-04-06T07:30:18;99240.84;;;4.47;100.00
53908;BME280;40469;47.998;7.794;2023-04-06T07:32:44;99242.91;;;4.65;100.00
53908;BME280;40469;47.998;7.794;2023-04-06T07:35:10;99239.66;;;4.75;100.00
53908;BME280;40469;47.998;7.794;2023-04-06T07:37:35;99237.19;;;4.83;100.00
53908;BME280;40469;47.998;7.794;2023-04-06T07:40:01;99234.00;;;4.98;100.00
53908;BME280;40469;47.998;7.794;2023-04-06T07:42:26;99238.19;;;4.90;100.00
53908;BME280;40469;47.998;7.794;2023-04-06T07:44:52;99238.19;;;4.91;100.00
53908;BME280;40469;47.998;7.794;2023-04-06T07:47:17;99231.38;;;4.95;100.00
53908;BME280;40469;47.998;7.794;2023-04-06T07:49:42;99240.06;;;5.00;100.00
53908;BME280;40469;47.998;7.794;2023-04-06T07:52:08;99231.50;;;5.04;100.00
53908;BME280;40469;47.998;7.794;2023-04-06T07:54:33;99234.59;;;5.34;100.00
53908;BME280;40469;47.998;7.794;2023-04-06T07:56:58;99225.22;;;5.43;100.00
53908;BME280;40469;47.998;7.794;2023-04-06T07:59:24;99234.88;;;5.54;100.00
53908;BME280;40469;47.998;7.794;2023-04-06T08:01:49;99228.06;;;5.60;100.00
53908;BME280;40469;47.998;7.794;2023-04-06T08:04:15;99236.09;;;5.80;100.00
53908;BME280;40469;47.998;7.794;2023-04-06T08:06:40;99233.66;;;5.88;100.00
53908;BME280;40469;47.998;7.794;2023-04-06T08:09:06;99225.72;;;5.79;100.00
53908;BME280;40469;47.998;7.794;2023-04-06T08:11:31;99231.84;;;5.82;100.00
53908;BME280;40469;47.998;7.794;2023-04-06T08:13:57;99235.53;;;5.97;100.00
53908;BME280;40469;47.998;7.794;2023-04-06T08:16:23;99239.03;;;6.03;100.00
53908;BME280;40469;47.998;7.794;2023-04-06T08:18:48;99235.03;;;6.27;100.00
53908;BME280;40469;47.998;7.794;2023-04-06T08:21:14;99231.91;;;6.57;100.00
53908;BME280;40469;47.998;7.794;2023-04-06T08:23:39;99231.91;;;6.59;100.00
53908;BME280;40469;47.998;7.794;2023-04-06T08:26:05;99225.91;;;6.64;100.00
53908;BME280;40469;47.998;7.794;2023-04-06T08:28:30;99236.56;;;6.92;100.00
53908;BME280;40469;47.998;7.794;2023-04-06T08:30:56;99230.44;;;6.86;100.00
53908;BME280;40469;47.998;7.794;2023-04-06T08:33:21;99220.41;;;7.26;100.00
53908;BME280;40469;47.998;7.794;2023-04-06T08:35:47;99223.81;;;7.21;100.00
53908;BME280;40469;47.998;7.794;2023-04-06T08:38:12;99221.38;;;7.45;100.00
53908;BME280;40469;47.998;7.794;2023-04-06T08:40:38;99230.09;;;7.51;97.49
53908;BME280;40469;47.998;7.794;2023-04-06T08:43:06;99222.44;;;7.68;93.32
53908;BME280;40469;47.998;7.794;2023-04-06T08:45:34;99226.78;;;7.74;90.35
53908;BME280;40469;47.998;7.794;2023-04-06T08:48:00;99226.16;;;8.26;86.44
53908;BME280;40469;47.998;7.794;2023-04-06T08:50:29;99220.22;;;8.56;86.35
53908;BME280;40469;47.998;7.794;2023-04-06T08:52:55;99221.16;;;8.84;75.62
53908;BME280;40469;47.998;7.794;2023-04-06T08:55:21;99215.94;;;8.73;68.86
53908;BME280;40469;47.998;7.794;2023-04-06T08:57:48;99216.75;;;8.59;62.99
53908;BME280;40469;47.998;7.794;2023-04-06T09:00:15;99215.91;;;8.61;67.11
53908;BME280;40469;47.998;7.794;2023-04-06T09:02:43;99226.34;;;8.81;65.08
53908;BME280;40469;47.998;7.794;2023-04-06T09:05:10;99222.00;;;8.80;66.72
53908;BME280;40469;47.998;7.794;2023-04-06T09:07:36;99216.78;;;8.69;70.42
53908;BME280;40469;47.998;7.794;2023-04-06T09:10:04;99221.13;;;9.55;65.39
53908;BME280;40469;47.998;7.794;2023-04-06T09:12:31;99216.78;;;9.60;67.27
53908;BME280;40469;47.998;7.794;2023-04-06T09:14:58;99222.03;;;9.25;62.51
53908;BME280;40469;47.998;7.794;2023-04-06T09:17:25;99225.50;;;9.13;59.34
53908;BME280;40469;47.998;7.794;2023-04-06T09:19:51;99222.84;;;9.55;60.57
53908;BME280;40469;47.998;7.794;2023-04-06T09:22:17;99220.75;;;10.66;57.49
53908;BME280;40469;47.998;7.794;2023-04-06T09:24:48;99218.72;;;11.08;53.82
53908;BME280;40469;47.998;7.794;2023-04-06T09:27:14;99215.31;;;10.95;51.09
53908;BME280;40469;47.998;7.794;2023-04-06T09:29:41;99217.41;;;10.30;54.47
53908;BME280;40469;47.998;7.794;2023-04-06T09:32:08;99218.94;;;10.73;55.95
53908;BME280;40469;47.998;7.794;2023-04-06T09:34:39;99220.25;;;11.31;57.31
53908;BME280;40469;47.998;7.794;2023-04-06T09:37:18;99217.63;;;12.19;60.09
53908;BME280;40469;47.998;7.794;2023-04-06T09:39:44;99222.28;;;11.89;52.54
53908;BME280;40469;47.998;7.794;2023-04-06T09:42:22;99216.41;;;12.48;48.75
53908;BME280;40469;47.998;7.794;2023-04-06T09:44:48;99216.56;;;11.56;48.40
53908;BME280;40469;47.998;7.794;2023-04-06T09:47:13;99209.63;;;12.30;48.53
53908;BME280;40469;47.998;7.794;2023-04-06T09:49:41;99217.59;;;12.22;48.45
53908;BME280;40469;47.998;7.794;2023-04-06T09:52:08;99214.16;;;12.19;49.65
53908;BME280;40469;47.998;7.794;2023-04-06T09:54:37;99206.19;;;12.26;45.51
53908;BME280;40469;47.998;7.794;2023-04-06T10:00:06;99205.09;;;12.44;52.59
53908;BME280;40469;47.998;7.794;2023-04-06T10:07:57;99205.19;;;11.57;49.08
53908;BME280;40469;47.998;7.794;2023-04-06T10:10:22;99210.84;;;12.03;52.83
53908;BME280;40469;47.998;7.794;2023-04-06T10:12:48;99207.41;;;12.66;47.19
53908;BME280;40469;47.998;7.794;2023-04-06T10:15:15;99194.66;;;12.41;45.83
53908;BME280;40469;47.998;7.794;2023-04-06T10:17:41;99197.44;;;12.89;46.14
53908;BME280;40469;47.998;7.794;2023-04-06T10:20:14;99185.06;;;13.01;43.51
53908;BME280;40469;47.998;7.794;2023-04-06T10:25:26;99188.75;;;12.87;43.13
53908;BME280;40469;47.998;7.794;2023-04-06T10:28:05;99193.09;;;12.90;45.35
53908;BME280;40469;47.998;7.794;2023-04-06T10:30:31;99184.78;;;13.16;42.94
53908;BME280;40469;47.998;7.794;2023-04-06T10:32:57;99191.91;;;13.09;44.55
53908;BME280;40469;47.998;7.794;2023-04-06T10:35:22;99184.75;;;13.19;41.71
53908;BME280;40469;47.998;7.794;2023-04-06T10:38:01;99180.09;;;13.38;44.37
53908;BME280;40469;47.998;7.794;2023-04-06T10:40:28;99176.91;;;13.18;43.30
53908;BME280;40469;47.998;7.794;2023-04-06T10:42:54;99181.69;;;13.45;43.00
53908;BME280;40469;47.998;7.794;2023-04-06T10:45:25;99182.28;;;13.10;43.65
53908;BME280;40469;47.998;7.794;2023-04-06T10:47:54;99184.72;;;13.21;42.84
53908;BME280;40469;47.998;7.794;2023-04-06T10:50:21;99179.38;;;12.73;44.27
53908;BME280;40469;47.998;7.794;2023-04-06T10:52:47;99168.63;;;13.42;42.91
53908;BME280;40469;47.998;7.794;2023-04-06T10:55:13;99172.06;;;13.46;40.82
53908;BME280;40469;47.998;7.794;2023-04-06T10:57:40;99177.47;;;13.83;40.81
53908;BME280;40469;47.998;7.794;2023-04-06T11:00:06;99161.06;;;14.17;42.57
53908;BME280;40469;47.998;7.794;2023-04-06T11:02:33;99167.59;;;14.40;40.09
53908;BME280;40469;47.998;7.794;2023-04-06T11:04:58;99173.25;;;14.20;39.51
53908;BME280;40469;47.998;7.794;2023-04-06T11:07:25;99162.25;;;14.41;37.69
53908;BME280;40469;47.998;7.794;2023-04-06T11:09:51;99162.44;;;14.34;38.77
53908;BME280;40469;47.998;7.794;2023-04-06T11:12:27;99167.44;;;14.04;39.37
53908;BME280;40469;47.998;7.794;2023-04-06T11:15:00;99157.63;;;13.70;38.80
53908;BME280;40469;47.998;7.794;2023-04-06T11:17:33;99158.53;;;13.18;39.41
53908;BME280;40469;47.998;7.794;2023-04-06T11:19:59;99156.06;;;13.61;38.08
53908;BME280;40469;47.998;7.794;2023-04-06T11:22:26;99161.69;;;13.41;37.59
53908;BME280;40469;47.998;7.794;2023-04-06T11:24:52;99146.28;;;13.70;38.55
53908;BME280;40469;47.998;7.794;2023-04-06T11:27:19;99150.44;;;13.80;37.89
53908;BME280;40469;47.998;7.794;2023-04-06T11:29:44;99142.56;;;13.80;37.25
53908;BME280;40469;47.998;7.794;2023-04-06T11:32:22;99142.78;;;13.68;37.61
53908;BME280;40469;47.998;7.794;2023-04-06T11:34:48;99147.88;;;13.77;38.18
53908;BME280;40469;47.998;7.794;2023-04-06T11:37:14;99146.38;;;14.09;36.46
53908;BME280;40469;47.998;7.794;2023-04-06T11:39:50;99144.41;;;14.17;36.04
53908;BME280;40469;47.998;7.794;2023-04-06T11:42:27;99146.69;;;14.34;37.44
53908;BME280;40469;47.998;7.794;2023-04-06T11:44:57;99137.59;;;14.49;37.16
53908;BME280;40469;47.998;7.794;2023-04-06T11:47:30;99133.25;;;14.09;37.15
53908;BME280;40469;47.998;7.794;2023-04-06T11:52:33;99130.66;;;13.63;37.30
53908;BME280;40469;47.998;7.794;2023-04-06T11:54:58;99121.41;;;13.89;38.99
53908;BME280;40469;47.998;7.794;2023-04-06T11:57:24;99122.34;;;13.85;37.31
53908;BME280;40469;47.998;7.794;2023-04-06T11:59:50;99111.59;;;13.96;36.84
53908;BME280;40469;47.998;7.794;2023-04-06T12:02:16;99130.75;;;13.59;38.23
53908;BME280;40469;47.998;7.794;2023-04-06T12:04:43;99124.84;;;13.48;37.71
53908;BME280;40469;47.998;7.794;2023-04-06T12:07:09;99118.06;;;12.83;38.07
53908;BME280;40469;47.998;7.794;2023-04-06T12:09:35;99119.31;;;13.15;37.91
53908;BME280;40469;47.998;7.794;2023-04-06T12:12:01;99111.13;;;13.32;38.26
53908;BME280;40469;47.998;7.794;2023-04-06T12:14:27;99117.31;;;13.27;37.76
53908;BME280;40469;47.998;7.794;2023-04-06T12:16:52;99117.28;;;13.29;38.84
53908;BME280;40469;47.998;7.794;2023-04-06T12:19:18;99121.63;;;13.30;39.08
53908;BME280;40469;47.998;7.794;2023-04-06T12:21:43;99112.06;;;13.27;39.90
53908;BME280;40469;47.998;7.794;2023-04-06T12:24:08;99118.97;;;13.33;39.75
53908;BME280;40469;47.998;7.794;2023-04-06T12:26:34;99113.53;;;13.44;39.58
53908;BME280;40469;47.998;7.794;2023-04-06T12:29:01;99104.81;;;12.94;39.71
53908;BME280;40469;47.998;7.794;2023-04-06T12:31:32;99101.84;;;13.12;39.68
53908;BME280;40469;47.998;7.794;2023-04-06T12:33:58;99111.31;;;13.21;39.60
53908;BME280;40469;47.998;7.794;2023-04-06T12:36:23;99102.63;;;13.19;43.11
53908;BME280;40469;47.998;7.794;2023-04-06T12:38:50;99107.47;;;13.42;40.31
53908;BME280;40469;47.998;7.794;2023-04-06T12:41:18;99105.25;;;13.17;41.77
53908;BME280;40469;47.998;7.794;2023-04-06T12:43:44;99105.09;;;13.26;40.53
53908;BME280;40469;47.998;7.794;2023-04-06T12:46:11;99099.47;;;12.98;40.92
53908;BME280;40469;47.998;7.794;2023-04-06T12:48:36;99102.03;;;13.01;40.68
53908;BME280;40469;47.998;7.794;2023-04-06T12:51:04;99100.41;;;13.45;40.85
53908;BME280;40469;47.998;7.794;2023-04-06T12:53:30;99092.97;;;13.21;41.11
53908;BME280;40469;47.998;7.794;2023-04-06T12:55:57;99096.34;;;13.27;39.70
53908;BME280;40469;47.998;7.794;2023-04-06T12:58:23;99096.63;;;13.11;41.11
53908;BME280;40469;47.998;7.794;2023-04-06T13:00:51;99097.69;;;13.00;41.72
53908;BME280;40469;47.998;7.794;2023-04-06T13:03:18;99101.19;;;13.01;39.84
53908;BME280;40469;47.998;7.794;2023-04-06T13:05:45;99093.75;;;13.24;40.21
53908;BME280;40469;47.998;7.794;2023-04-06T13:08:10;99084.56;;;13.00;40.07